Minnetonka Mills, Minnesota
Current Conditions -  °F | °C
As of 7:53 AM on Thursday 30 Oct 2014 (Local Time) from KFCM Reporting Station
Overcast Overcast  
Wind Chill:   Ceiling: 6000
Heat Index:   Visibility: 10mi
Dew Point:   Wind: 3mph
Humidity: 79%   Direction: 70°ENE
Pressure: 30.03"   Gusts: NA
Location:  44.9144°N, 93.4174°W
Report Text: KFCM 301253Z 07003KT 10SM OVC060 04/01 A3003 RMK AO2 SLP175 T00440011
Loading
Personal Weather Stations






























Interactive Weather Map
Tropical Storm Tracking
New forecast layout! Learn more

10-Day Weather Forecast

Advertisements
Track Severe Weather on mobile